»·PEaware :: N9875 KASE-KTEX

N9875 :: KASE-KTEX

FLIGHT INFORMATION

Flight Status: Arrived
Operator: Privately registered:
United States
More flights under this callsign
Pilot: Neil M. (14975)
Aircraft: CESSNA 340
(C340)
More flights by this aircraft type
Origin: KASE Aspen-Pitkin Co/Sardy
United States
Destination: KTEX Telluride Regl
United States
More flights between these airports :: More routes between these airports
Route: LINDZ SLOLM MTJ ETL
File this flight plan on PilotEdge
Remarks:
Altitude:
(Current/Filed)
18,000ft
Speed:
(Current/Filed)
190kts
Departed: 07-Jan-18 07:59 PM
Arrived: 07-Jan-18 08:56 PM
Distance/Time
Traveled:
90nm/0:57
Distance/Time
To Go:
Arrived

Flight Plot

Page will automatically refresh every two minutes.

Flight plan parsing failed; only flown route is shown


Map Options




Map Legend


Flown Route
Filed Route
Departure Airport
Arrival Airport
Navaid (VOR, NDB)
Fix

Horizontal Profiles

Position Reports

Time Latitude Longitude Heading Altitude Ground
Speed
07-Jan-18 19:44 39.224151 -106.867220 251 7841ft 0kts
07-Jan-18 19:45 39.224151 -106.867220 251 7841ft 0kts
07-Jan-18 19:46 39.224151 -106.867220 251 7841ft 0kts
07-Jan-18 19:47 39.224151 -106.867220 251 7841ft 0kts
07-Jan-18 19:48 39.224151 -106.867220 251 7841ft 0kts
07-Jan-18 19:49 39.224151 -106.867220 251 7841ft 0kts
07-Jan-18 19:50 39.224151 -106.867220 251 7841ft 0kts
07-Jan-18 19:51 39.224151 -106.867220 251 7841ft 0kts
07-Jan-18 19:52 39.224151 -106.867220 251 7841ft 0kts
07-Jan-18 19:53 39.224151 -106.867220 251 7841ft 0kts
07-Jan-18 19:54 39.224151 -106.867220 251 7841ft 0kts
07-Jan-18 19:55 39.224151 -106.867220 251 7841ft 0kts
07-Jan-18 19:56 39.224151 -106.867220 251 7841ft 0kts
07-Jan-18 19:57 39.224151 -106.867220 251 7841ft 0kts
07-Jan-18 19:58 39.221334 -106.866777 156 7841ft 25kts
07-Jan-18 19:59 39.215598 -106.864153 158 7841ft 5kts
07-Jan-18 20:00 39.215585 -106.864146 159 7841ft 0kts
07-Jan-18 20:01 39.215585 -106.864146 158 7841ft 0kts
07-Jan-18 20:02 39.215399 -106.864050 159 7841ft 3kts
07-Jan-18 20:03 39.215368 -106.864035 160 7841ft 0kts
07-Jan-18 20:04 39.214726 -106.864422 240 7841ft 19kts
07-Jan-18 20:05 39.230049 -106.871323 351 8140ft 109kts
07-Jan-18 20:06 39.253925 -106.867899 356 9189ft 114kts
07-Jan-18 20:07 39.282033 -106.867733 353 10449ft 108kts
07-Jan-18 20:08 39.308995 -106.871069 347 11605ft 106kts
07-Jan-18 20:09 39.337072 -106.872278 354 12618ft 110kts
07-Jan-18 20:10 39.364615 -106.877032 310 13573ft 105kts
07-Jan-18 20:11 39.370082 -106.908125 272 14531ft 102kts
07-Jan-18 20:12 39.382497 -106.938137 298 15381ft 110kts
07-Jan-18 20:13 39.388501 -106.972121 285 16294ft 108kts
07-Jan-18 20:14 39.402186 -107.001665 267 17163ft 107kts
07-Jan-18 20:15 39.398309 -107.035976 271 17966ft 109kts
07-Jan-18 20:16 39.399651 -107.077573 271 18014ft 147kts
07-Jan-18 20:17 39.397819 -107.125602 267 18009ft 161kts
07-Jan-18 20:18 39.391876 -107.177683 258 18005ft 167kts
07-Jan-18 20:19 39.380977 -107.230278 257 18003ft 172kts
07-Jan-18 20:20 39.369616 -107.284264 257 18000ft 173kts
07-Jan-18 20:21 39.358252 -107.337924 257 18269ft 161kts
07-Jan-18 20:22 39.347460 -107.389169 257 18327ft 173kts
07-Jan-18 20:23 39.336222 -107.442292 257 18334ft 177kts
07-Jan-18 20:24 39.325024 -107.494984 257 18346ft 174kts
07-Jan-18 20:25 39.314079 -107.546551 258 18351ft 173kts
07-Jan-18 20:26 39.303537 -107.595719 257 18353ft 173kts
07-Jan-18 20:27 39.275037 -107.633783 205 18357ft 189kts
07-Jan-18 20:28 39.230476 -107.650474 202 18354ft 192kts
07-Jan-18 20:29 39.185998 -107.666067 201 18359ft 194kts
07-Jan-18 20:30 39.141716 -107.681485 201 18355ft 196kts
07-Jan-18 20:31 39.095025 -107.697582 201 18350ft 197kts
07-Jan-18 20:32 39.045754 -107.714573 201 18345ft 197kts
07-Jan-18 20:33 38.996204 -107.731679 200 18342ft 201kts
07-Jan-18 20:34 38.945347 -107.749359 198 18342ft 210kts
07-Jan-18 20:35 38.893106 -107.767459 195 18338ft 217kts
07-Jan-18 20:36 38.844564 -107.783956 194 18337ft 218kts
07-Jan-18 20:37 38.796154 -107.800397 194 18340ft 219kts
07-Jan-18 20:38 38.748424 -107.816710 194 18342ft 219kts
07-Jan-18 20:39 38.700902 -107.832956 194 18343ft 219kts
07-Jan-18 20:40 38.652109 -107.849609 194 18344ft 219kts
07-Jan-18 20:41 38.598243 -107.867966 194 18345ft 219kts
07-Jan-18 20:42 38.544979 -107.886086 194 18347ft 220kts
07-Jan-18 20:43 38.490566 -107.911144 211 18347ft 219kts
07-Jan-18 20:44 38.444952 -107.946769 213 18347ft 219kts
07-Jan-18 20:45 38.400679 -107.981218 212 18348ft 219kts
07-Jan-18 20:46 38.356399 -108.015458 212 18348ft 219kts
07-Jan-18 20:47 38.313329 -108.048711 212 18068ft 229kts
07-Jan-18 20:48 38.262479 -108.087956 212 17187ft 239kts
07-Jan-18 20:49 38.210740 -108.127775 211 16291ft 239kts
07-Jan-18 20:50 38.160154 -108.166639 211 15396ft 233kts
07-Jan-18 20:51 38.110337 -108.204877 211 14498ft 229kts
07-Jan-18 20:52 38.060956 -108.242706 210 13594ft 226kts
07-Jan-18 20:53 38.016404 -108.235734 87 12991ft 190kts
07-Jan-18 20:54 38.010705 -108.180631 101 12994ft 160kts
07-Jan-18 20:55 38.001242 -108.134719 101 12997ft 146kts
07-Jan-18 20:56 37.992749 -108.093900 101 12478ft 125kts
07-Jan-18 20:57 37.984200 -108.053127 102 11711ft 126kts
07-Jan-18 20:58 37.975560 -108.011989 102 10907ft 126kts
07-Jan-18 20:59 37.971172 -107.991213 102 10511ft 116kts
07-Jan-18 21:00 37.963654 -107.955391 102 9801ft 106kts
07-Jan-18 21:01 37.956651 -107.922782 101 9143ft 98kts
07-Jan-18 21:02 37.952812 -107.904074 103 9082ft 32kts
07-Jan-18 21:03 37.952942 -107.901056 82 9082ft 0kts

Navigation Log

Ident Type
Flight plan parsing failed, navigation log unavailable